Time,TemperatureF,DewpointF,PressureIn,WindDirection,WindDirectionDegrees,WindSpeedMPH,WindSpeedGustMPH,Humidity,HourlyPrecipIn,Conditions,Clouds,dailyrainin,SoftwareType,DateUTC
2013-03-27 00:02:00,46.0,13.0,30.02,ESE,114,3.0,10.0,26,0.00,,,0.00,,2013-03-27 05:02:00,
2013-03-27 00:12:00,46.0,13.0,30.02,ESE,114,3.0,10.0,26,0.00,,,0.00,,2013-03-27 05:12:00,
2013-03-27 00:23:00,46.0,13.0,30.02,ESE,114,3.0,10.0,26,0.00,,,0.00,,2013-03-27 05:23:00,
2013-03-27 00:33:00,45.0,12.0,30.03,NNW,344,0.0,7.0,26,0.00,,,0.00,,2013-03-27 05:33:00,
2013-03-27 00:42:00,45.0,12.0,30.03,NNW,344,0.0,7.0,26,0.00,,,0.00,,2013-03-27 05:42:00,
2013-03-27 00:52:00,45.0,12.0,30.03,NNW,344,0.0,7.0,26,0.00,,,0.00,,2013-03-27 05:52:00,
2013-03-27 01:02:00,44.0,12.0,30.03,North,6,2.0,5.0,27,0.00,,,0.00,,2013-03-27 06:02:00,
2013-03-27 01:12:00,44.0,12.0,30.03,North,6,2.0,5.0,27,0.00,,,0.00,,2013-03-27 06:12:00,
2013-03-27 01:22:00,44.0,12.0,30.03,North,6,2.0,5.0,27,0.00,,,0.00,,2013-03-27 06:22:00,
2013-03-27 01:32:00,39.0,12.0,30.05,North,6,0.0,3.0,32,0.00,,,0.00,,2013-03-27 06:32:00,
2013-03-27 01:42:00,39.0,12.0,30.05,North,6,0.0,3.0,32,0.00,,,0.00,,2013-03-27 06:42:00,
2013-03-27 01:53:00,39.0,12.0,30.05,North,6,0.0,3.0,32,0.00,,,0.00,,2013-03-27 06:53:00,
2013-03-27 02:02:00,35.0,11.0,30.06,North,6,0.0,3.0,37,0.00,,,0.00,,2013-03-27 07:02:00,
2013-03-27 02:12:00,35.0,11.0,30.06,North,6,0.0,3.0,37,0.00,,,0.00,,2013-03-27 07:12:00,
2013-03-27 02:22:00,35.0,11.0,30.06,North,6,0.0,3.0,37,0.00,,,0.00,,2013-03-27 07:22:00,
2013-03-27 02:32:00,36.0,15.0,30.06,North,6,2.0,3.0,42,0.00,,,0.00,,2013-03-27 07:32:00,
2013-03-27 02:43:00,36.0,15.0,30.06,North,6,2.0,3.0,42,0.00,,,0.00,,2013-03-27 07:43:00,
2013-03-27 02:53:00,36.0,15.0,30.06,North,6,2.0,3.0,42,0.00,,,0.00,,2013-03-27 07:53:00,
2013-03-27 03:02:00,38.0,16.0,30.02,NNE,13,0.0,6.0,40,0.00,,,0.00,,2013-03-27 08:02:00,
2013-03-27 03:12:00,38.0,16.0,30.02,NNE,13,0.0,6.0,40,0.00,,,0.00,,2013-03-27 08:12:00,
2013-03-27 03:22:00,38.0,16.0,30.02,NNE,13,0.0,6.0,40,0.00,,,0.00,,2013-03-27 08:22:00,
2013-03-27 03:32:00,41.0,15.0,29.98,NE,37,0.0,6.0,35,0.00,,,0.00,,2013-03-27 08:32:00,
2013-03-27 03:43:00,41.0,15.0,29.98,NE,37,0.0,6.0,35,0.00,,,0.00,,2013-03-27 08:43:00,
2013-03-27 03:52:00,41.0,15.0,29.98,NE,37,0.0,6.0,35,0.00,,,0.00,,2013-03-27 08:52:00,
2013-03-27 04:02:00,38.0,15.0,29.98,NE,37,0.0,3.0,39,0.00,,,0.00,,2013-03-27 09:02:00,
2013-03-27 04:12:00,38.0,15.0,29.98,NE,37,0.0,3.0,39,0.00,,,0.00,,2013-03-27 09:12:00,
2013-03-27 04:22:00,38.0,15.0,29.98,NE,37,0.0,3.0,39,0.00,,,0.00,,2013-03-27 09:22:00,
2013-03-27 04:32:00,38.0,15.0,29.98,NE,37,0.0,3.0,39,0.00,,,0.00,,2013-03-27 09:32:00,
2013-03-27 05:02:00,31.0,14.0,30.01,NE,40,1.0,3.0,48,0.00,,,0.00,,2013-03-27 10:02:00,
2013-03-27 05:12:00,31.0,14.0,30.01,NE,40,1.0,3.0,48,0.00,,,0.00,,2013-03-27 10:12:00,
2013-03-27 05:23:00,31.0,14.0,30.01,NE,40,1.0,3.0,48,0.00,,,0.00,,2013-03-27 10:23:00,
2013-03-27 05:32:00,30.0,13.0,30.02,NE,40,0.0,5.0,49,0.00,,,0.00,,2013-03-27 10:32:00,
2013-03-27 05:42:00,30.0,13.0,30.02,NE,40,0.0,5.0,49,0.00,,,0.00,,2013-03-27 10:42:00,
2013-03-27 05:53:00,30.0,13.0,30.02,NE,40,0.0,5.0,49,0.00,,,0.00,,2013-03-27 10:53:00,
2013-03-27 06:02:00,30.0,15.0,30.03,NE,40,0.0,3.0,53,0.00,,,0.00,,2013-03-27 11:02:00,
2013-03-27 06:12:00,30.0,15.0,30.03,NE,40,0.0,3.0,53,0.00,,,0.00,,2013-03-27 11:12:00,
2013-03-27 06:22:00,30.0,15.0,30.03,NE,40,0.0,3.0,53,0.00,,,0.00,,2013-03-27 11:22:00,
2013-03-27 06:32:00,31.0,16.0,30.02,ESE,109,1.0,6.0,53,0.00,,,0.00,,2013-03-27 11:32:00,
2013-03-27 06:42:00,31.0,16.0,30.02,ESE,109,1.0,6.0,53,0.00,,,0.00,,2013-03-27 11:42:00,
2013-03-27 06:53:00,31.0,16.0,30.02,ESE,109,1.0,6.0,53,0.00,,,0.00,,2013-03-27 11:53:00,
2013-03-27 07:02:00,31.0,16.0,30.03,ESE,114,1.0,6.0,53,0.00,,,0.00,,2013-03-27 12:02:00,
2013-03-27 07:12:00,31.0,16.0,30.03,ESE,114,1.0,6.0,53,0.00,,,0.00,,2013-03-27 12:12:00,
2013-03-27 07:23:00,31.0,16.0,30.03,ESE,114,1.0,6.0,53,0.00,,,0.00,,2013-03-27 12:23:00,
2013-03-27 07:32:00,31.0,17.0,30.05,ESE,114,0.0,6.0,55,0.00,,,0.00,,2013-03-27 12:32:00,
2013-03-27 07:43:00,31.0,17.0,30.05,ESE,114,0.0,6.0,55,0.00,,,0.00,,2013-03-27 12:43:00,
2013-03-27 07:52:00,31.0,17.0,30.05,ESE,114,0.0,6.0,55,0.00,,,0.00,,2013-03-27 12:52:00,
2013-03-27 08:02:00,32.0,17.0,30.07,ESE,114,1.0,5.0,54,0.00,,,0.00,,2013-03-27 13:02:00,
2013-03-27 08:12:00,32.0,17.0,30.07,ESE,114,1.0,5.0,54,0.00,,,0.00,,2013-03-27 13:12:00,
2013-03-27 08:22:00,32.0,17.0,30.07,ESE,114,1.0,5.0,54,0.00,,,0.00,,2013-03-27 13:22:00,
2013-03-27 08:32:00,32.0,18.0,30.08,ESE,114,2.0,5.0,56,0.00,,,0.00,,2013-03-27 13:32:00,
2013-03-27 08:42:00,32.0,18.0,30.08,ESE,114,2.0,5.0,56,0.00,,,0.00,,2013-03-27 13:42:00,
2013-03-27 08:53:00,32.0,18.0,30.08,ESE,114,2.0,5.0,56,0.00,,,0.00,,2013-03-27 13:53:00,
2013-03-27 09:02:00,36.0,20.0,30.06,ESE,114,0.0,5.0,51,0.00,,,0.00,,2013-03-27 14:02:00,
2013-03-27 09:12:00,36.0,20.0,30.06,ESE,114,0.0,5.0,51,0.00,,,0.00,,2013-03-27 14:12:00,
2013-03-27 09:22:00,36.0,20.0,30.06,ESE,114,0.0,5.0,51,0.00,,,0.00,,2013-03-27 14:22:00,
2013-03-27 09:32:00,47.0,23.0,30.01,ESE,114,0.0,2.0,39,0.00,,,0.00,,2013-03-27 14:32:00,
2013-03-27 09:42:00,47.0,23.0,30.01,ESE,114,0.0,2.0,39,0.00,,,0.00,,2013-03-27 14:42:00,
2013-03-27 09:52:00,47.0,23.0,30.01,ESE,114,0.0,2.0,39,0.00,,,0.00,,2013-03-27 14:52:00,
2013-03-27 10:02:00,47.0,23.0,30.01,ESE,114,0.0,2.0,39,0.00,,,0.00,,2013-03-27 15:02:00,
2013-03-27 10:33:00,64.0,20.0,29.92,East,97,0.0,3.0,18,0.00,,,0.00,,2013-03-27 15:33:00,
2013-03-27 10:43:00,64.0,20.0,29.92,East,97,0.0,3.0,18,0.00,,,0.00,,2013-03-27 15:43:00,
2013-03-27 10:52:00,64.0,20.0,29.92,East,97,0.0,3.0,18,0.00,,,0.00,,2013-03-27 15:52:00,
2013-03-27 11:02:00,66.0,20.0,29.92,West,277,2.0,9.0,17,0.00,,,0.00,,2013-03-27 16:02:00,
2013-03-27 11:13:00,66.0,20.0,29.92,West,277,2.0,9.0,17,0.00,,,0.00,,2013-03-27 16:13:00,
2013-03-27 11:22:00,66.0,20.0,29.92,West,277,2.0,9.0,17,0.00,,,0.00,,2013-03-27 16:22:00,
2013-03-27 11:32:00,67.0,19.0,29.92,WSW,239,5.0,12.0,16,0.00,,,0.00,,2013-03-27 16:32:00,
2013-03-27 11:42:00,67.0,19.0,29.92,WSW,239,5.0,12.0,16,0.00,,,0.00,,2013-03-27 16:42:00,
2013-03-27 11:52:00,67.0,19.0,29.92,WSW,239,5.0,12.0,16,0.00,,,0.00,,2013-03-27 16:52:00,
2013-03-27 12:03:00,69.0,19.0,29.91,WSW,247,3.0,10.0,15,0.00,,,0.00,,2013-03-27 17:03:00,
2013-03-27 12:12:00,69.0,19.0,29.91,WSW,247,3.0,10.0,15,0.00,,,0.00,,2013-03-27 17:12:00,
2013-03-27 12:22:00,69.0,19.0,29.91,WSW,247,3.0,10.0,15,0.00,,,0.00,,2013-03-27 17:22:00,
2013-03-27 12:32:00,70.0,19.0,29.91,West,261,2.0,8.0,14,0.00,,,0.00,,2013-03-27 17:32:00,
2013-03-27 12:44:00,70.0,19.0,29.91,West,261,2.0,8.0,14,0.00,,,0.00,,2013-03-27 17:44:00,
2013-03-27 12:52:00,70.0,19.0,29.91,West,261,2.0,8.0,14,0.00,,,0.00,,2013-03-27 17:52:00,
2013-03-27 13:02:00,71.0,18.0,29.94,NW,319,6.0,12.0,13,0.00,,,0.00,,2013-03-27 18:02:00,
2013-03-27 13:12:00,71.0,18.0,29.94,NW,319,6.0,12.0,13,0.00,,,0.00,,2013-03-27 18:12:00,
2013-03-27 13:22:00,71.0,18.0,29.94,NW,319,6.0,12.0,13,0.00,,,0.00,,2013-03-27 18:22:00,
2013-03-27 13:32:00,71.0,16.0,29.94,NW,313,2.0,10.0,12,0.00,,,0.00,,2013-03-27 18:32:00,
2013-03-27 13:42:00,71.0,16.0,29.94,NW,313,2.0,10.0,12,0.00,,,0.00,,2013-03-27 18:42:00,
2013-03-27 13:53:00,71.0,16.0,29.94,NW,313,2.0,10.0,12,0.00,,,0.00,,2013-03-27 18:53:00,
2013-03-27 14:02:00,71.0,18.0,29.93,West,277,1.0,12.0,13,0.00,,,0.00,,2013-03-27 19:02:00,
2013-03-27 14:12:00,71.0,18.0,29.93,West,277,1.0,12.0,13,0.00,,,0.00,,2013-03-27 19:12:00,
2013-03-27 14:22:00,71.0,18.0,29.93,West,277,1.0,12.0,13,0.00,,,0.00,,2013-03-27 19:22:00,
2013-03-27 14:32:00,70.0,19.0,29.93,SW,233,4.0,12.0,14,0.00,,,0.00,,2013-03-27 19:32:00,
2013-03-27 14:42:00,70.0,19.0,29.93,SW,233,4.0,12.0,14,0.00,,,0.00,,2013-03-27 19:42:00,
2013-03-27 14:52:00,70.0,19.0,29.93,SW,233,4.0,12.0,14,0.00,,,0.00,,2013-03-27 19:52:00,
2013-03-27 15:02:00,71.0,19.0,29.89,SW,220,5.0,21.0,14,0.00,,,0.00,,2013-03-27 20:02:00,
2013-03-27 15:12:00,71.0,19.0,29.89,SW,220,5.0,21.0,14,0.00,,,0.00,,2013-03-27 20:12:00,
2013-03-27 15:22:00,71.0,19.0,29.89,SW,220,5.0,21.0,14,0.00,,,0.00,,2013-03-27 20:22:00,
2013-03-27 15:32:00,72.0,20.0,29.88,WNW,289,1.0,13.0,14,0.00,,,0.00,,2013-03-27 20:32:00,
2013-03-27 15:43:00,72.0,20.0,29.88,WNW,289,1.0,13.0,14,0.00,,,0.00,,2013-03-27 20:43:00,
2013-03-27 15:52:00,72.0,20.0,29.88,WNW,289,1.0,13.0,14,0.00,,,0.00,,2013-03-27 20:52:00,
2013-03-27 16:02:00,71.0,19.0,29.92,WNW,294,3.0,8.0,14,0.00,,,0.00,,2013-03-27 21:02:00,
2013-03-27 16:12:00,71.0,19.0,29.92,WNW,294,3.0,8.0,14,0.00,,,0.00,,2013-03-27 21:12:00,
2013-03-27 16:22:00,71.0,19.0,29.92,WNW,294,3.0,8.0,14,0.00,,,0.00,,2013-03-27 21:22:00,
2013-03-27 16:32:00,70.0,20.0,29.93,SSW,208,6.0,14.0,15,0.00,,,0.00,,2013-03-27 21:32:00,
2013-03-27 16:43:00,70.0,20.0,29.93,SSW,208,6.0,14.0,15,0.00,,,0.00,,2013-03-27 21:43:00,
2013-03-27 16:52:00,70.0,20.0,29.93,SSW,208,6.0,14.0,15,0.00,,,0.00,,2013-03-27 21:52:00,
2013-03-27 17:03:00,69.0,21.0,29.93,SSW,210,4.0,10.0,16,0.00,,,0.00,,2013-03-27 22:03:00,
2013-03-27 17:12:00,69.0,21.0,29.93,SSW,210,4.0,10.0,16,0.00,,,0.00,,2013-03-27 22:12:00,
2013-03-27 17:23:00,69.0,21.0,29.93,SSW,210,4.0,10.0,16,0.00,,,0.00,,2013-03-27 22:23:00,
2013-03-27 17:33:00,72.0,23.0,29.91,South,184,2.0,10.0,16,0.00,,,0.00,,2013-03-27 22:33:00,
2013-03-27 17:42:00,72.0,23.0,29.91,South,184,2.0,10.0,16,0.00,,,0.00,,2013-03-27 22:42:00,
2013-03-27 17:53:00,72.0,23.0,29.91,South,184,2.0,10.0,16,0.00,,,0.00,,2013-03-27 22:53:00,
2013-03-27 18:02:00,71.0,23.0,29.92,SSW,212,5.0,18.0,16,0.00,,,0.00,,2013-03-27 23:02:00,
2013-03-27 18:12:00,71.0,23.0,29.92,SSW,212,5.0,18.0,16,0.00,,,0.00,,2013-03-27 23:12:00,
2013-03-27 18:22:00,71.0,23.0,29.92,SSW,212,5.0,18.0,16,0.00,,,0.00,,2013-03-27 23:22:00,
2013-03-27 18:32:00,71.0,23.0,29.92,SW,219,6.0,15.0,16,0.00,,,0.00,,2013-03-27 23:32:00,
2013-03-27 18:43:00,71.0,23.0,29.92,SW,219,6.0,15.0,16,0.00,,,0.00,,2013-03-27 23:43:00,
2013-03-27 18:52:00,71.0,23.0,29.92,SW,219,6.0,15.0,16,0.00,,,0.00,,2013-03-27 23:52:00,
2013-03-27 19:02:00,70.0,22.0,29.92,SSW,203,8.0,14.0,16,0.00,,,0.00,,2013-03-28 00:02:00,
2013-03-27 19:12:00,70.0,22.0,29.92,SSW,203,8.0,14.0,16,0.00,,,0.00,,2013-03-28 00:12:00,
2013-03-27 19:22:00,70.0,22.0,29.92,SSW,203,8.0,14.0,16,0.00,,,0.00,,2013-03-28 00:22:00,
2013-03-27 19:32:00,68.0,22.0,29.93,West,265,2.0,13.0,17,0.00,,,0.00,,2013-03-28 00:32:00,
2013-03-27 19:43:00,68.0,22.0,29.93,West,265,2.0,13.0,17,0.00,,,0.00,,2013-03-28 00:43:00,
2013-03-27 19:52:00,68.0,22.0,29.93,West,265,2.0,13.0,17,0.00,,,0.00,,2013-03-28 00:52:00,
2013-03-27 20:02:00,66.0,20.0,29.93,SW,234,3.0,10.0,17,0.00,,,0.00,,2013-03-28 01:02:00,
2013-03-27 20:12:00,66.0,20.0,29.93,SW,234,3.0,10.0,17,0.00,,,0.00,,2013-03-28 01:12:00,
2013-03-27 20:22:00,66.0,20.0,29.93,SW,234,3.0,10.0,17,0.00,,,0.00,,2013-03-28 01:22:00,
2013-03-27 20:32:00,65.0,20.0,29.94,SSE,167,1.0,5.0,18,0.00,,,0.00,,2013-03-28 01:32:00,
2013-03-27 20:42:00,65.0,20.0,29.94,SSE,167,1.0,5.0,18,0.00,,,0.00,,2013-03-28 01:42:00,
2013-03-27 20:53:00,65.0,20.0,29.94,SSE,167,1.0,5.0,18,0.00,,,0.00,,2013-03-28 01:53:00,
2013-03-27 21:02:00,60.0,20.0,29.85,SW,229,0.0,6.0,21,0.00,,,0.00,,2013-03-28 02:02:00,
2013-03-27 21:12:00,60.0,20.0,29.85,SW,229,0.0,6.0,21,0.00,,,0.00,,2013-03-28 02:12:00,
2013-03-27 21:22:00,60.0,20.0,29.85,SW,229,0.0,6.0,21,0.00,,,0.00,,2013-03-28 02:22:00,
2013-03-27 21:32:00,53.0,19.0,29.91,SW,229,0.0,2.0,26,0.00,,,0.00,,2013-03-28 02:32:00,
2013-03-27 21:42:00,53.0,19.0,29.91,SW,229,0.0,2.0,26,0.00,,,0.00,,2013-03-28 02:42:00,
2013-03-27 21:52:00,53.0,19.0,29.91,SW,229,0.0,2.0,26,0.00,,,0.00,,2013-03-28 02:52:00,
2013-03-27 22:02:00,50.0,18.0,29.86,SW,229,0.0,1.0,28,0.00,,,0.00,,2013-03-28 03:02:00,
2013-03-27 22:12:00,50.0,18.0,29.86,SW,229,0.0,1.0,28,0.00,,,0.00,,2013-03-28 03:12:00,
2013-03-27 22:22:00,50.0,18.0,29.86,SW,229,0.0,1.0,28,0.00,,,0.00,,2013-03-28 03:22:00,
2013-03-27 22:33:00,46.0,18.0,29.88,SW,229,0.0,0.0,32,0.00,,,0.00,,2013-03-28 03:33:00,
2013-03-27 22:43:00,46.0,18.0,29.88,SW,229,0.0,0.0,32,0.00,,,0.00,,2013-03-28 03:43:00,
2013-03-27 22:53:00,46.0,18.0,29.88,SW,229,0.0,0.0,32,0.00,,,0.00,,2013-03-28 03:53:00,
2013-03-27 23:02:00,43.0,18.0,29.90,SW,229,0.0,0.0,36,0.00,,,0.00,,2013-03-28 04:02:00,
2013-03-27 23:12:00,43.0,18.0,29.90,SW,229,0.0,0.0,36,0.00,,,0.00,,2013-03-28 04:12:00,
2013-03-27 23:23:00,43.0,18.0,29.90,SW,229,0.0,0.0,36,0.00,,,0.00,,2013-03-28 04:23:00,
2013-03-27 23:32:00,43.0,19.0,29.91,SW,229,1.0,3.0,38,0.00,,,0.00,,2013-03-28 04:32:00,
2013-03-27 23:42:00,43.0,19.0,29.91,SW,229,1.0,3.0,38,0.00,,,0.00,,2013-03-28 04:42:00,
2013-03-27 23:52:00,43.0,19.0,29.91,SW,229,1.0,3.0,38,0.00,,,0.00,,2013-03-28 04:52:00,